sensor_id;sensor_type;location;lat;lon;timestamp;P1;durP1;ratioP1;P2;durP2;ratioP2
41115;SDS011;26861;51.824;4.682;2023-01-29T00:01:58;2.38;;;2.10;;
41115;SDS011;26861;51.824;4.682;2023-01-29T00:04:24;2.53;;;2.30;;
41115;SDS011;26861;51.824;4.682;2023-01-29T00:06:50;2.40;;;2.17;;
41115;SDS011;26861;51.824;4.682;2023-01-29T00:09:15;2.58;;;2.38;;
41115;SDS011;26861;51.824;4.682;2023-01-29T00:11:42;4.05;;;2.40;;
41115;SDS011;26861;51.824;4.682;2023-01-29T00:14:07;2.83;;;1.98;;
41115;SDS011;26861;51.824;4.682;2023-01-29T00:16:33;5.32;;;2.22;;
41115;SDS011;26861;51.824;4.682;2023-01-29T00:18:59;1.77;;;1.67;;
41115;SDS011;26861;51.824;4.682;2023-01-29T00:21:26;2.22;;;1.85;;
41115;SDS011;26861;51.824;4.682;2023-01-29T00:23:52;1.63;;;1.52;;
41115;SDS011;26861;51.824;4.682;2023-01-29T00:26:19;2.08;;;1.65;;
41115;SDS011;26861;51.824;4.682;2023-01-29T00:28:45;2.88;;;1.98;;
41115;SDS011;26861;51.824;4.682;2023-01-29T00:31:14;2.13;;;1.75;;
41115;SDS011;26861;51.824;4.682;2023-01-29T00:33:44;1.85;;;1.58;;
41115;SDS011;26861;51.824;4.682;2023-01-29T00:36:11;1.48;;;1.38;;
41115;SDS011;26861;51.824;4.682;2023-01-29T00:38:38;1.60;;;1.50;;
41115;SDS011;26861;51.824;4.682;2023-01-29T00:43:52;1.95;;;1.85;;
41115;SDS011;26861;51.824;4.682;2023-01-29T00:46:36;1.58;;;1.48;;
41115;SDS011;26861;51.824;4.682;2023-01-29T00:49:02;1.75;;;1.65;;
41115;SDS011;26861;51.824;4.682;2023-01-29T00:51:28;1.50;;;1.40;;
41115;SDS011;26861;51.824;4.682;2023-01-29T00:53:54;1.50;;;1.33;;
41115;SDS011;26861;51.824;4.682;2023-01-29T00:56:22;1.55;;;1.45;;
41115;SDS011;26861;51.824;4.682;2023-01-29T00:58:49;2.20;;;1.35;;
41115;SDS011;26861;51.824;4.682;2023-01-29T01:01:14;1.90;;;1.70;;
41115;SDS011;26861;51.824;4.682;2023-01-29T01:03:40;2.00;;;1.80;;
41115;SDS011;26861;51.824;4.682;2023-01-29T01:06:06;2.58;;;2.10;;
41115;SDS011;26861;51.824;4.682;2023-01-29T01:08:35;2.67;;;2.10;;
41115;SDS011;26861;51.824;4.682;2023-01-29T01:11:19;1.90;;;1.30;;
41115;SDS011;26861;51.824;4.682;2023-01-29T01:13:46;1.90;;;1.80;;
41115;SDS011;26861;51.824;4.682;2023-01-29T01:16:15;1.67;;;1.55;;
41115;SDS011;26861;51.824;4.682;2023-01-29T01:18:42;1.40;;;1.30;;
41115;SDS011;26861;51.824;4.682;2023-01-29T01:21:08;2.38;;;1.60;;
41115;SDS011;26861;51.824;4.682;2023-01-29T01:23:34;1.40;;;1.30;;
41115;SDS011;26861;51.824;4.682;2023-01-29T01:25:59;1.65;;;1.55;;
41115;SDS011;26861;51.824;4.682;2023-01-29T01:28:25;1.63;;;1.48;;
41115;SDS011;26861;51.824;4.682;2023-01-29T01:30:51;1.63;;;1.35;;
41115;SDS011;26861;51.824;4.682;2023-01-29T01:33:17;1.40;;;1.30;;
41115;SDS011;26861;51.824;4.682;2023-01-29T01:35:43;1.98;;;1.52;;
41115;SDS011;26861;51.824;4.682;2023-01-29T01:38:08;1.25;;;1.10;;
41115;SDS011;26861;51.824;4.682;2023-01-29T01:40:34;2.00;;;1.58;;
41115;SDS011;26861;51.824;4.682;2023-01-29T01:43:00;1.20;;;1.10;;
41115;SDS011;26861;51.824;4.682;2023-01-29T01:45:35;1.50;;;1.40;;
41115;SDS011;26861;51.824;4.682;2023-01-29T01:48:18;1.50;;;1.30;;
41115;SDS011;26861;51.824;4.682;2023-01-29T01:53:21;0.95;;;0.95;;
41115;SDS011;26861;51.824;4.682;2023-01-29T01:55:57;1.27;;;1.20;;
41115;SDS011;26861;51.824;4.682;2023-01-29T01:58:31;1.52;;;1.10;;
41115;SDS011;26861;51.824;4.682;2023-01-29T02:01:01;1.63;;;1.15;;
41115;SDS011;26861;51.824;4.682;2023-01-29T02:03:28;2.38;;;1.50;;
41115;SDS011;26861;51.824;4.682;2023-01-29T02:06:16;1.55;;;1.30;;
41115;SDS011;26861;51.824;4.682;2023-01-29T02:09:01;1.40;;;1.20;;
41115;SDS011;26861;51.824;4.682;2023-01-29T02:11:50;1.80;;;1.23;;
41115;SDS011;26861;51.824;4.682;2023-01-29T02:14:15;0.95;;;0.93;;
41115;SDS011;26861;51.824;4.682;2023-01-29T02:16:41;1.23;;;1.10;;
41115;SDS011;26861;51.824;4.682;2023-01-29T02:19:13;1.98;;;1.38;;
41115;SDS011;26861;51.824;4.682;2023-01-29T02:29:56;1.33;;;0.90;;
41115;SDS011;26861;51.824;4.682;2023-01-29T02:38:00;1.48;;;1.38;;
41115;SDS011;26861;51.824;4.682;2023-01-29T02:51:29;1.88;;;1.40;;
41115;SDS011;26861;51.824;4.682;2023-01-29T02:54:09;1.60;;;1.20;;
41115;SDS011;26861;51.824;4.682;2023-01-29T02:56:59;2.33;;;1.85;;
41115;SDS011;26861;51.824;4.682;2023-01-29T02:59:36;2.35;;;1.90;;
41115;SDS011;26861;51.824;4.682;2023-01-29T03:02:08;1.50;;;1.40;;
41115;SDS011;26861;51.824;4.682;2023-01-29T03:04:42;1.40;;;1.30;;
41115;SDS011;26861;51.824;4.682;2023-01-29T03:07:15;2.17;;;1.40;;
41115;SDS011;26861;51.824;4.682;2023-01-29T03:10:05;1.20;;;1.17;;
41115;SDS011;26861;51.824;4.682;2023-01-29T03:12:39;1.95;;;1.13;;
41115;SDS011;26861;51.824;4.682;2023-01-29T03:15:10;2.28;;;1.70;;
41115;SDS011;26861;51.824;4.682;2023-01-29T03:20:18;1.60;;;1.38;;
41115;SDS011;26861;51.824;4.682;2023-01-29T03:22:57;1.30;;;1.20;;
41115;SDS011;26861;51.824;4.682;2023-01-29T03:25:32;1.20;;;1.10;;
41115;SDS011;26861;51.824;4.682;2023-01-29T03:28:18;1.70;;;1.60;;
41115;SDS011;26861;51.824;4.682;2023-01-29T03:31:05;1.80;;;1.50;;
41115;SDS011;26861;51.824;4.682;2023-01-29T03:37:02;1.35;;;1.25;;
41115;SDS011;26861;51.824;4.682;2023-01-29T03:39:32;1.27;;;1.17;;
41115;SDS011;26861;51.824;4.682;2023-01-29T03:50:16;1.40;;;1.30;;
41115;SDS011;26861;51.824;4.682;2023-01-29T03:53:03;1.88;;;1.63;;
41115;SDS011;26861;51.824;4.682;2023-01-29T03:55:37;1.30;;;1.20;;
41115;SDS011;26861;51.824;4.682;2023-01-29T03:58:28;2.00;;;1.30;;
41115;SDS011;26861;51.824;4.682;2023-01-29T04:01:13;2.30;;;2.10;;
41115;SDS011;26861;51.824;4.682;2023-01-29T04:03:42;2.88;;;1.50;;
41115;SDS011;26861;51.824;4.682;2023-01-29T04:06:28;2.00;;;1.67;;
41115;SDS011;26861;51.824;4.682;2023-01-29T04:09:15;1.60;;;1.40;;
41115;SDS011;26861;51.824;4.682;2023-01-29T04:11:48;1.63;;;1.38;;
41115;SDS011;26861;51.824;4.682;2023-01-29T04:14:27;2.08;;;1.88;;
41115;SDS011;26861;51.824;4.682;2023-01-29T04:16:56;1.50;;;1.40;;
41115;SDS011;26861;51.824;4.682;2023-01-29T04:19:25;2.30;;;1.73;;
41115;SDS011;26861;51.824;4.682;2023-01-29T04:21:54;1.70;;;1.58;;
41115;SDS011;26861;51.824;4.682;2023-01-29T04:24:35;1.95;;;1.85;;
41115;SDS011;26861;51.824;4.682;2023-01-29T04:27:13;2.92;;;2.20;;
41115;SDS011;26861;51.824;4.682;2023-01-29T04:40:53;2.60;;;2.00;;
41115;SDS011;26861;51.824;4.682;2023-01-29T04:43:28;2.25;;;1.85;;
41115;SDS011;26861;51.824;4.682;2023-01-29T04:47:02;2.15;;;1.95;;
41115;SDS011;26861;51.824;4.682;2023-01-29T04:57:33;2.10;;;1.90;;
41115;SDS011;26861;51.824;4.682;2023-01-29T05:00:18;2.72;;;2.30;;
41115;SDS011;26861;51.824;4.682;2023-01-29T05:02:51;1.95;;;1.75;;
41115;SDS011;26861;51.824;4.682;2023-01-29T05:05:17;2.92;;;1.92;;
41115;SDS011;26861;51.824;4.682;2023-01-29T05:07:45;2.30;;;2.10;;
41115;SDS011;26861;51.824;4.682;2023-01-29T05:10:12;1.90;;;1.80;;
41115;SDS011;26861;51.824;4.682;2023-01-29T05:12:40;2.35;;;2.15;;
41115;SDS011;26861;51.824;4.682;2023-01-29T05:15:11;2.10;;;1.77;;
41115;SDS011;26861;51.824;4.682;2023-01-29T05:17:40;2.22;;;2.03;;
41115;SDS011;26861;51.824;4.682;2023-01-29T05:20:07;2.38;;;2.15;;
41115;SDS011;26861;51.824;4.682;2023-01-29T05:22:35;2.60;;;2.40;;
41115;SDS011;26861;51.824;4.682;2023-01-29T05:25:03;3.08;;;2.30;;
41115;SDS011;26861;51.824;4.682;2023-01-29T05:27:51;2.55;;;2.17;;
41115;SDS011;26861;51.824;4.682;2023-01-29T05:30:30;1.85;;;1.70;;
41115;SDS011;26861;51.824;4.682;2023-01-29T05:33:01;1.83;;;1.73;;
41115;SDS011;26861;51.824;4.682;2023-01-29T05:35:28;2.40;;;1.88;;
41115;SDS011;26861;51.824;4.682;2023-01-29T05:37:55;2.83;;;2.40;;
41115;SDS011;26861;51.824;4.682;2023-01-29T05:40:21;2.00;;;1.80;;
41115;SDS011;26861;51.824;4.682;2023-01-29T05:42:49;3.25;;;1.88;;
41115;SDS011;26861;51.824;4.682;2023-01-29T05:45:16;2.53;;;1.73;;
41115;SDS011;26861;51.824;4.682;2023-01-29T05:47:43;2.53;;;2.05;;
41115;SDS011;26861;51.824;4.682;2023-01-29T05:50:09;1.75;;;1.65;;
41115;SDS011;26861;51.824;4.682;2023-01-29T05:52:35;2.00;;;1.80;;
41115;SDS011;26861;51.824;4.682;2023-01-29T05:55:02;2.03;;;1.75;;
41115;SDS011;26861;51.824;4.682;2023-01-29T05:57:28;2.15;;;1.92;;
41115;SDS011;26861;51.824;4.682;2023-01-29T05:59:54;2.45;;;1.80;;
41115;SDS011;26861;51.824;4.682;2023-01-29T06:02:20;2.30;;;2.10;;
41115;SDS011;26861;51.824;4.682;2023-01-29T06:04:46;2.10;;;1.50;;
41115;SDS011;26861;51.824;4.682;2023-01-29T06:07:12;1.83;;;1.73;;
41115;SDS011;26861;51.824;4.682;2023-01-29T06:09:38;2.50;;;2.30;;
41115;SDS011;26861;51.824;4.682;2023-01-29T06:12:04;2.20;;;1.92;;
41115;SDS011;26861;51.824;4.682;2023-01-29T06:14:32;3.55;;;2.55;;
41115;SDS011;26861;51.824;4.682;2023-01-29T06:16:58;2.58;;;2.35;;
41115;SDS011;26861;51.824;4.682;2023-01-29T06:19:24;2.78;;;2.55;;
41115;SDS011;26861;51.824;4.682;2023-01-29T06:21:50;2.65;;;1.70;;
41115;SDS011;26861;51.824;4.682;2023-01-29T06:24:16;2.50;;;2.30;;
41115;SDS011;26861;51.824;4.682;2023-01-29T06:26:42;3.20;;;2.90;;
41115;SDS011;26861;51.824;4.682;2023-01-29T06:29:08;2.75;;;2.22;;
41115;SDS011;26861;51.824;4.682;2023-01-29T06:31:34;3.35;;;2.40;;
41115;SDS011;26861;51.824;4.682;2023-01-29T06:33:59;3.53;;;2.75;;
41115;SDS011;26861;51.824;4.682;2023-01-29T06:36:25;2.78;;;2.50;;
41115;SDS011;26861;51.824;4.682;2023-01-29T06:38:51;3.35;;;2.70;;
41115;SDS011;26861;51.824;4.682;2023-01-29T06:41:17;2.75;;;2.55;;
41115;SDS011;26861;51.824;4.682;2023-01-29T06:43:44;3.78;;;2.90;;
41115;SDS011;26861;51.824;4.682;2023-01-29T06:46:11;2.45;;;2.22;;
41115;SDS011;26861;51.824;4.682;2023-01-29T06:48:37;3.80;;;3.15;;
41115;SDS011;26861;51.824;4.682;2023-01-29T06:51:04;2.67;;;2.42;;
41115;SDS011;26861;51.824;4.682;2023-01-29T06:53:32;2.50;;;2.30;;
41115;SDS011;26861;51.824;4.682;2023-01-29T06:55:59;2.53;;;2.28;;
41115;SDS011;26861;51.824;4.682;2023-01-29T06:58:25;3.05;;;2.40;;
41115;SDS011;26861;51.824;4.682;2023-01-29T07:00:51;2.40;;;2.20;;
41115;SDS011;26861;51.824;4.682;2023-01-29T07:03:16;2.60;;;2.40;;
41115;SDS011;26861;51.824;4.682;2023-01-29T07:05:48;2.75;;;2.55;;
41115;SDS011;26861;51.824;4.682;2023-01-29T07:08:15;3.35;;;3.05;;
41115;SDS011;26861;51.824;4.682;2023-01-29T07:10:41;2.92;;;2.70;;
41115;SDS011;26861;51.824;4.682;2023-01-29T07:13:07;3.55;;;3.25;;
41115;SDS011;26861;51.824;4.682;2023-01-29T07:15:33;3.30;;;3.00;;
41115;SDS011;26861;51.824;4.682;2023-01-29T07:18:00;3.42;;;2.92;;
41115;SDS011;26861;51.824;4.682;2023-01-29T07:20:30;5.35;;;3.40;;
41115;SDS011;26861;51.824;4.682;2023-01-29T07:22:56;2.88;;;2.30;;
41115;SDS011;26861;51.824;4.682;2023-01-29T07:25:23;4.00;;;3.10;;
41115;SDS011;26861;51.824;4.682;2023-01-29T07:27:49;3.33;;;2.58;;
41115;SDS011;26861;51.824;4.682;2023-01-29T07:30:16;3.70;;;2.67;;
41115;SDS011;26861;51.824;4.682;2023-01-29T07:32:42;4.43;;;3.20;;
41115;SDS011;26861;51.824;4.682;2023-01-29T07:35:08;3.28;;;2.97;;
41115;SDS011;26861;51.824;4.682;2023-01-29T07:37:34;3.30;;;3.00;;
41115;SDS011;26861;51.824;4.682;2023-01-29T07:40:01;4.38;;;2.95;;
41115;SDS011;26861;51.824;4.682;2023-01-29T07:42:29;5.40;;;3.33;;
41115;SDS011;26861;51.824;4.682;2023-01-29T07:44:55;3.80;;;2.90;;
41115;SDS011;26861;51.824;4.682;2023-01-29T07:47:21;3.88;;;2.97;;
41115;SDS011;26861;51.824;4.682;2023-01-29T07:49:47;4.45;;;3.45;;
41115;SDS011;26861;51.824;4.682;2023-01-29T07:52:13;5.68;;;3.38;;
41115;SDS011;26861;51.824;4.682;2023-01-29T07:54:39;3.45;;;3.10;;
41115;SDS011;26861;51.824;4.682;2023-01-29T07:57:05;3.88;;;3.35;;
41115;SDS011;26861;51.824;4.682;2023-01-29T07:59:31;4.10;;;3.60;;
41115;SDS011;26861;51.824;4.682;2023-01-29T08:01:57;3.47;;;3.17;;
41115;SDS011;26861;51.824;4.682;2023-01-29T08:04:23;3.67;;;2.58;;
41115;SDS011;26861;51.824;4.682;2023-01-29T08:06:49;2.72;;;2.47;;
41115;SDS011;26861;51.824;4.682;2023-01-29T08:09:15;3.45;;;2.90;;
41115;SDS011;26861;51.824;4.682;2023-01-29T08:11:41;3.30;;;2.92;;
41115;SDS011;26861;51.824;4.682;2023-01-29T08:14:07;5.97;;;3.65;;
41115;SDS011;26861;51.824;4.682;2023-01-29T08:16:34;5.60;;;3.78;;
41115;SDS011;26861;51.824;4.682;2023-01-29T08:19:00;3.15;;;2.80;;
41115;SDS011;26861;51.824;4.682;2023-01-29T08:21:27;4.28;;;3.50;;
41115;SDS011;26861;51.824;4.682;2023-01-29T08:23:53;4.07;;;3.25;;
41115;SDS011;26861;51.824;4.682;2023-01-29T08:26:18;5.63;;;3.40;;
41115;SDS011;26861;51.824;4.682;2023-01-29T08:28:45;5.00;;;3.53;;
41115;SDS011;26861;51.824;4.682;2023-01-29T08:31:11;4.22;;;3.45;;
41115;SDS011;26861;51.824;4.682;2023-01-29T08:33:38;5.43;;;3.38;;
41115;SDS011;26861;51.824;4.682;2023-01-29T08:36:04;3.78;;;3.25;;
41115;SDS011;26861;51.824;4.682;2023-01-29T08:38:30;3.53;;;3.05;;
41115;SDS011;26861;51.824;4.682;2023-01-29T08:40:56;3.85;;;3.10;;
41115;SDS011;26861;51.824;4.682;2023-01-29T08:43:22;3.97;;;3.42;;
41115;SDS011;26861;51.824;4.682;2023-01-29T08:45:47;4.25;;;3.33;;
41115;SDS011;26861;51.824;4.682;2023-01-29T08:48:13;7.07;;;3.17;;
41115;SDS011;26861;51.824;4.682;2023-01-29T08:50:38;4.35;;;3.28;;
41115;SDS011;26861;51.824;4.682;2023-01-29T08:53:05;4.97;;;2.80;;
41115;SDS011;26861;51.824;4.682;2023-01-29T08:55:33;6.28;;;3.30;;
41115;SDS011;26861;51.824;4.682;2023-01-29T08:58:01;6.22;;;3.60;;
41115;SDS011;26861;51.824;4.682;2023-01-29T09:00:29;4.43;;;3.80;;
41115;SDS011;26861;51.824;4.682;2023-01-29T09:02:56;6.03;;;3.83;;
41115;SDS011;26861;51.824;4.682;2023-01-29T09:05:24;5.07;;;3.70;;
41115;SDS011;26861;51.824;4.682;2023-01-29T09:07:50;4.68;;;3.00;;
41115;SDS011;26861;51.824;4.682;2023-01-29T09:10:16;3.78;;;3.20;;
41115;SDS011;26861;51.824;4.682;2023-01-29T09:12:42;4.85;;;3.50;;
41115;SDS011;26861;51.824;4.682;2023-01-29T09:15:08;4.88;;;3.50;;
41115;SDS011;26861;51.824;4.682;2023-01-29T09:17:34;3.63;;;3.10;;
41115;SDS011;26861;51.824;4.682;2023-01-29T09:20:00;6.00;;;3.05;;
41115;SDS011;26861;51.824;4.682;2023-01-29T09:22:27;7.93;;;4.03;;
41115;SDS011;26861;51.824;4.682;2023-01-29T09:24:52;4.07;;;3.25;;
41115;SDS011;26861;51.824;4.682;2023-01-29T09:27:18;3.95;;;3.30;;
41115;SDS011;26861;51.824;4.682;2023-01-29T09:29:44;5.78;;;3.10;;
41115;SDS011;26861;51.824;4.682;2023-01-29T09:32:09;4.55;;;4.10;;
41115;SDS011;26861;51.824;4.682;2023-01-29T09:34:35;4.93;;;3.72;;
41115;SDS011;26861;51.824;4.682;2023-01-29T09:37:00;5.35;;;3.50;;
41115;SDS011;26861;51.824;4.682;2023-01-29T09:39:26;3.60;;;3.30;;
41115;SDS011;26861;51.824;4.682;2023-01-29T09:41:54;4.80;;;3.90;;
41115;SDS011;26861;51.824;4.682;2023-01-29T09:44:48;5.10;;;4.40;;
41115;SDS011;26861;51.824;4.682;2023-01-29T09:47:37;4.35;;;3.40;;
41115;SDS011;26861;51.824;4.682;2023-01-29T09:50:12;5.03;;;3.95;;
41115;SDS011;26861;51.824;4.682;2023-01-29T09:52:41;3.63;;;3.33;;
41115;SDS011;26861;51.824;4.682;2023-01-29T09:57:51;4.32;;;3.92;;
41115;SDS011;26861;51.824;4.682;2023-01-29T10:03:11;5.22;;;3.83;;
41115;SDS011;26861;51.824;4.682;2023-01-29T10:16:28;4.18;;;3.72;;
41115;SDS011;26861;51.824;4.682;2023-01-29T10:22:05;4.35;;;3.35;;
41115;SDS011;26861;51.824;4.682;2023-01-29T10:24:54;4.47;;;3.60;;
41115;SDS011;26861;51.824;4.682;2023-01-29T10:27:26;3.53;;;3.22;;
41115;SDS011;26861;51.824;4.682;2023-01-29T10:29:57;5.72;;;4.45;;
41115;SDS011;26861;51.824;4.682;2023-01-29T10:32:24;4.10;;;3.67;;
41115;SDS011;26861;51.824;4.682;2023-01-29T10:34:52;4.43;;;3.90;;
41115;SDS011;26861;51.824;4.682;2023-01-29T10:37:38;5.32;;;4.57;;
41115;SDS011;26861;51.824;4.682;2023-01-29T10:40:16;4.20;;;3.70;;
41115;SDS011;26861;51.824;4.682;2023-01-29T10:42:45;3.88;;;3.53;;
41115;SDS011;26861;51.824;4.682;2023-01-29T10:46:04;5.47;;;4.00;;
41115;SDS011;26861;51.824;4.682;2023-01-29T10:53:42;7.95;;;5.25;;
41115;SDS011;26861;51.824;4.682;2023-01-29T11:01:56;6.38;;;4.80;;
41115;SDS011;26861;51.824;4.682;2023-01-29T11:04:23;7.18;;;5.18;;
41115;SDS011;26861;51.824;4.682;2023-01-29T11:06:52;6.55;;;5.15;;
41115;SDS011;26861;51.824;4.682;2023-01-29T11:12:00;8.38;;;5.40;;
41115;SDS011;26861;51.824;4.682;2023-01-29T11:14:30;6.40;;;5.37;;
41115;SDS011;26861;51.824;4.682;2023-01-29T11:16:58;9.60;;;5.32;;
41115;SDS011;26861;51.824;4.682;2023-01-29T11:19:57;6.72;;;5.45;;
41115;SDS011;26861;51.824;4.682;2023-01-29T11:22:18;8.48;;;5.15;;
41115;SDS011;26861;51.824;4.682;2023-01-29T11:24:46;8.10;;;4.97;;
41115;SDS011;26861;51.824;4.682;2023-01-29T11:27:46;9.60;;;4.95;;
41115;SDS011;26861;51.824;4.682;2023-01-29T11:30:22;4.40;;;3.97;;
41115;SDS011;26861;51.824;4.682;2023-01-29T11:33:06;6.47;;;4.45;;
41115;SDS011;26861;51.824;4.682;2023-01-29T11:35:42;6.30;;;4.68;;
41115;SDS011;26861;51.824;4.682;2023-01-29T11:40:40;5.80;;;5.00;;
41115;SDS011;26861;51.824;4.682;2023-01-29T11:43:49;7.30;;;5.10;;
41115;SDS011;26861;51.824;4.682;2023-01-29T11:45:57;7.15;;;5.15;;
41115;SDS011;26861;51.824;4.682;2023-01-29T11:48:31;4.80;;;4.25;;
41115;SDS011;26861;51.824;4.682;2023-01-29T11:51:31;5.57;;;4.70;;
41115;SDS011;26861;51.824;4.682;2023-01-29T11:54:00;6.53;;;4.75;;
41115;SDS011;26861;51.824;4.682;2023-01-29T11:58:58;6.28;;;5.15;;
41115;SDS011;26861;51.824;4.682;2023-01-29T12:01:29;7.55;;;5.15;;
41115;SDS011;26861;51.824;4.682;2023-01-29T12:03:58;4.90;;;4.47;;
41115;SDS011;26861;51.824;4.682;2023-01-29T12:06:32;7.50;;;4.60;;
41115;SDS011;26861;51.824;4.682;2023-01-29T12:09:02;5.13;;;4.60;;
41115;SDS011;26861;51.824;4.682;2023-01-29T12:11:35;5.03;;;4.30;;
41115;SDS011;26861;51.824;4.682;2023-01-29T12:14:03;5.95;;;5.25;;
41115;SDS011;26861;51.824;4.682;2023-01-29T12:16:32;6.80;;;5.38;;
41115;SDS011;26861;51.824;4.682;2023-01-29T12:21:48;5.68;;;4.80;;
41115;SDS011;26861;51.824;4.682;2023-01-29T12:24:30;5.82;;;5.22;;
41115;SDS011;26861;51.824;4.682;2023-01-29T12:29:51;5.47;;;4.90;;
41115;SDS011;26861;51.824;4.682;2023-01-29T12:35:14;7.10;;;5.33;;
41115;SDS011;26861;51.824;4.682;2023-01-29T12:40:20;5.82;;;5.13;;
41115;SDS011;26861;51.824;4.682;2023-01-29T12:42:50;6.75;;;5.60;;
41115;SDS011;26861;51.824;4.682;2023-01-29T12:45:21;6.18;;;5.25;;
41115;SDS011;26861;51.824;4.682;2023-01-29T12:50:27;6.70;;;5.05;;
41115;SDS011;26861;51.824;4.682;2023-01-29T12:55:51;6.07;;;4.47;;
41115;SDS011;26861;51.824;4.682;2023-01-29T12:58:29;5.90;;;4.85;;
41115;SDS011;26861;51.824;4.682;2023-01-29T13:01:04;5.60;;;4.55;;
41115;SDS011;26861;51.824;4.682;2023-01-29T13:06:30;7.68;;;5.00;;
41115;SDS011;26861;51.824;4.682;2023-01-29T13:09:08;5.72;;;4.18;;
41115;SDS011;26861;51.824;4.682;2023-01-29T13:11:40;4.45;;;4.05;;
41115;SDS011;26861;51.824;4.682;2023-01-29T13:17:02;6.00;;;4.45;;
41115;SDS011;26861;51.824;4.682;2023-01-29T13:19:51;4.05;;;3.65;;
41115;SDS011;26861;51.824;4.682;2023-01-29T13:22:27;4.90;;;4.40;;
41115;SDS011;26861;51.824;4.682;2023-01-29T13:24:58;5.68;;;4.22;;
41115;SDS011;26861;51.824;4.682;2023-01-29T13:27:25;6.53;;;4.32;;
41115;SDS011;26861;51.824;4.682;2023-01-29T13:29:56;6.43;;;4.95;;
41115;SDS011;26861;51.824;4.682;2023-01-29T13:32:25;6.25;;;4.47;;
41115;SDS011;26861;51.824;4.682;2023-01-29T13:34:59;6.07;;;4.78;;
41115;SDS011;26861;51.824;4.682;2023-01-29T13:39:58;5.90;;;4.75;;
41115;SDS011;26861;51.824;4.682;2023-01-29T13:42:32;5.35;;;4.72;;
41115;SDS011;26861;51.824;4.682;2023-01-29T13:45:22;6.82;;;4.75;;
41115;SDS011;26861;51.824;4.682;2023-01-29T13:48:28;6.57;;;4.97;;
41115;SDS011;26861;51.824;4.682;2023-01-29T13:50:59;5.78;;;4.43;;
41115;SDS011;26861;51.824;4.682;2023-01-29T13:53:34;5.35;;;4.85;;
41115;SDS011;26861;51.824;4.682;2023-01-29T13:57:02;6.40;;;4.90;;
41115;SDS011;26861;51.824;4.682;2023-01-29T13:58:58;4.93;;;4.07;;
41115;SDS011;26861;51.824;4.682;2023-01-29T14:04:23;6.28;;;4.57;;
41115;SDS011;26861;51.824;4.682;2023-01-29T14:06:59;6.55;;;4.85;;
41115;SDS011;26861;51.824;4.682;2023-01-29T14:09:31;10.02;;;5.10;;
41115;SDS011;26861;51.824;4.682;2023-01-29T14:11:58;8.10;;;4.95;;
41115;SDS011;26861;51.824;4.682;2023-01-29T14:17:13;6.32;;;4.30;;
41115;SDS011;26861;51.824;4.682;2023-01-29T14:19:49;9.57;;;4.72;;
41115;SDS011;26861;51.824;4.682;2023-01-29T14:22:20;6.78;;;4.63;;
41115;SDS011;26861;51.824;4.682;2023-01-29T14:24:54;7.45;;;4.50;;
41115;SDS011;26861;51.824;4.682;2023-01-29T14:27:24;5.78;;;4.63;;
41115;SDS011;26861;51.824;4.682;2023-01-29T14:29:51;5.03;;;4.03;;
41115;SDS011;26861;51.824;4.682;2023-01-29T14:32:27;4.85;;;3.90;;
41115;SDS011;26861;51.824;4.682;2023-01-29T14:37:30;13.27;;;4.35;;
41115;SDS011;26861;51.824;4.682;2023-01-29T14:39:57;6.45;;;4.40;;
41115;SDS011;26861;51.824;4.682;2023-01-29T14:42:57;4.35;;;3.95;;
41115;SDS011;26861;51.824;4.682;2023-01-29T14:45:31;8.25;;;4.50;;
41115;SDS011;26861;51.824;4.682;2023-01-29T14:53:04;6.05;;;4.35;;
41115;SDS011;26861;51.824;4.682;2023-01-29T14:55:42;5.78;;;3.85;;
41115;SDS011;26861;51.824;4.682;2023-01-29T14:58:14;6.70;;;4.20;;
41115;SDS011;26861;51.824;4.682;2023-01-29T15:00:49;7.95;;;3.90;;
41115;SDS011;26861;51.824;4.682;2023-01-29T15:03:21;5.57;;;4.07;;
41115;SDS011;26861;51.824;4.682;2023-01-29T15:05:56;4.38;;;3.92;;
41115;SDS011;26861;51.824;4.682;2023-01-29T15:08:37;8.10;;;4.35;;
41115;SDS011;26861;51.824;4.682;2023-01-29T15:11:11;6.07;;;4.22;;
41115;SDS011;26861;51.824;4.682;2023-01-29T15:19:48;5.68;;;4.10;;
41115;SDS011;26861;51.824;4.682;2023-01-29T15:22:15;4.32;;;3.80;;
41115;SDS011;26861;51.824;4.682;2023-01-29T15:24:43;6.72;;;4.35;;
41115;SDS011;26861;51.824;4.682;2023-01-29T15:27:14;8.80;;;4.57;;
41115;SDS011;26861;51.824;4.682;2023-01-29T15:29:43;6.57;;;4.13;;
41115;SDS011;26861;51.824;4.682;2023-01-29T15:32:19;7.47;;;4.93;;
41115;SDS011;26861;51.824;4.682;2023-01-29T15:34:52;6.25;;;4.10;;
41115;SDS011;26861;51.824;4.682;2023-01-29T15:37:26;5.68;;;3.70;;
41115;SDS011;26861;51.824;4.682;2023-01-29T15:39:57;5.93;;;4.25;;
41115;SDS011;26861;51.824;4.682;2023-01-29T15:42:25;6.53;;;4.45;;
41115;SDS011;26861;51.824;4.682;2023-01-29T15:45:20;8.32;;;5.15;;
41115;SDS011;26861;51.824;4.682;2023-01-29T15:47:47;6.30;;;4.55;;
41115;SDS011;26861;51.824;4.682;2023-01-29T15:50:13;8.27;;;5.72;;
41115;SDS011;26861;51.824;4.682;2023-01-29T15:52:39;9.60;;;5.22;;
41115;SDS011;26861;51.824;4.682;2023-01-29T15:55:06;12.88;;;5.72;;
41115;SDS011;26861;51.824;4.682;2023-01-29T15:57:36;13.20;;;6.30;;
41115;SDS011;26861;51.824;4.682;2023-01-29T16:00:06;9.23;;;6.00;;
41115;SDS011;26861;51.824;4.682;2023-01-29T16:02:41;12.57;;;6.00;;
41115;SDS011;26861;51.824;4.682;2023-01-29T16:05:14;11.63;;;5.70;;
41115;SDS011;26861;51.824;4.682;2023-01-29T16:07:43;10.27;;;6.07;;
41115;SDS011;26861;51.824;4.682;2023-01-29T16:10:29;10.35;;;5.88;;
41115;SDS011;26861;51.824;4.682;2023-01-29T16:12:56;11.80;;;7.00;;
41115;SDS011;26861;51.824;4.682;2023-01-29T16:15:33;11.95;;;6.68;;
41115;SDS011;26861;51.824;4.682;2023-01-29T16:18:02;11.90;;;7.07;;
41115;SDS011;26861;51.824;4.682;2023-01-29T16:20:44;12.07;;;6.28;;
41115;SDS011;26861;51.824;4.682;2023-01-29T16:23:15;11.32;;;6.80;;
41115;SDS011;26861;51.824;4.682;2023-01-29T16:25:47;11.57;;;6.93;;
41115;SDS011;26861;51.824;4.682;2023-01-29T16:28:13;11.52;;;6.35;;
41115;SDS011;26861;51.824;4.682;2023-01-29T16:30:40;10.30;;;6.18;;
41115;SDS011;26861;51.824;4.682;2023-01-29T16:33:07;8.15;;;6.05;;
41115;SDS011;26861;51.824;4.682;2023-01-29T16:35:37;8.25;;;5.82;;
41115;SDS011;26861;51.824;4.682;2023-01-29T16:38:05;10.88;;;5.90;;
41115;SDS011;26861;51.824;4.682;2023-01-29T16:41:12;8.80;;;5.90;;
41115;SDS011;26861;51.824;4.682;2023-01-29T16:46:18;7.97;;;5.75;;
41115;SDS011;26861;51.824;4.682;2023-01-29T16:48:45;9.60;;;5.90;;
41115;SDS011;26861;51.824;4.682;2023-01-29T16:51:13;8.93;;;5.85;;
41115;SDS011;26861;51.824;4.682;2023-01-29T16:54:07;9.30;;;6.40;;
41115;SDS011;26861;51.824;4.682;2023-01-29T16:56:46;8.02;;;5.57;;
41115;SDS011;26861;51.824;4.682;2023-01-29T16:59:17;10.20;;;6.05;;
41115;SDS011;26861;51.824;4.682;2023-01-29T17:01:51;9.48;;;6.63;;
41115;SDS011;26861;51.824;4.682;2023-01-29T17:04:20;10.95;;;6.03;;
41115;SDS011;26861;51.824;4.682;2023-01-29T17:06:47;9.77;;;5.93;;
41115;SDS011;26861;51.824;4.682;2023-01-29T17:09:22;10.70;;;6.25;;
41115;SDS011;26861;51.824;4.682;2023-01-29T17:11:53;10.88;;;6.47;;
41115;SDS011;26861;51.824;4.682;2023-01-29T17:14:22;7.80;;;6.03;;
41115;SDS011;26861;51.824;4.682;2023-01-29T17:17:06;10.15;;;6.35;;
41115;SDS011;26861;51.824;4.682;2023-01-29T17:19:39;10.13;;;6.13;;
41115;SDS011;26861;51.824;4.682;2023-01-29T17:22:06;8.25;;;6.28;;
41115;SDS011;26861;51.824;4.682;2023-01-29T17:24:41;7.78;;;5.82;;
41115;SDS011;26861;51.824;4.682;2023-01-29T17:27:29;8.13;;;5.55;;
41115;SDS011;26861;51.824;4.682;2023-01-29T17:29:53;10.13;;;6.88;;
41115;SDS011;26861;51.824;4.682;2023-01-29T17:32:19;7.75;;;5.97;;
41115;SDS011;26861;51.824;4.682;2023-01-29T17:34:45;8.20;;;6.13;;
41115;SDS011;26861;51.824;4.682;2023-01-29T17:37:13;8.40;;;6.60;;
41115;SDS011;26861;51.824;4.682;2023-01-29T17:39:40;10.80;;;6.07;;
41115;SDS011;26861;51.824;4.682;2023-01-29T17:42:09;8.00;;;6.25;;